sensor_id;sensor_type;location;lat;lon;timestamp;temperature;humidity
49042;DHT22;34859;51.608;11.462;2022-09-09T00:01:43;13.40;99.90
49042;DHT22;34859;51.608;11.462;2022-09-09T00:04:38;13.30;99.90
49042;DHT22;34859;51.608;11.462;2022-09-09T00:10:40;13.30;99.90
49042;DHT22;34859;51.608;11.462;2022-09-09T00:16:28;13.20;99.90
49042;DHT22;34859;51.608;11.462;2022-09-09T00:22:21;13.10;99.90
49042;DHT22;34859;51.608;11.462;2022-09-09T00:25:29;13.20;99.90
49042;DHT22;34859;51.608;11.462;2022-09-09T00:28:20;13.20;99.90
49042;DHT22;34859;51.608;11.462;2022-09-09T00:31:18;13.20;99.90
49042;DHT22;34859;51.608;11.462;2022-09-09T00:34:15;13.50;99.90
49042;DHT22;34859;51.608;11.462;2022-09-09T00:37:02;13.70;99.90
49042;DHT22;34859;51.608;11.462;2022-09-09T00:39:48;13.80;99.90
49042;DHT22;34859;51.608;11.462;2022-09-09T00:42:41;13.80;99.90
49042;DHT22;34859;51.608;11.462;2022-09-09T00:57:52;13.80;99.90
49042;DHT22;34859;51.608;11.462;2022-09-09T01:00:43;13.60;99.90
49042;DHT22;34859;51.608;11.462;2022-09-09T01:03:37;13.50;99.90
49042;DHT22;34859;51.608;11.462;2022-09-09T01:06:42;13.70;99.90
49042;DHT22;34859;51.608;11.462;2022-09-09T01:09:54;13.70;99.90
49042;DHT22;34859;51.608;11.462;2022-09-09T01:12:42;13.70;99.90
49042;DHT22;34859;51.608;11.462;2022-09-09T01:15:29;13.50;99.90
49042;DHT22;34859;51.608;11.462;2022-09-09T01:18:17;13.50;99.90
49042;DHT22;34859;51.608;11.462;2022-09-09T01:27:02;13.20;99.90
49042;DHT22;34859;51.608;11.462;2022-09-09T01:29:48;13.20;99.90
49042;DHT22;34859;51.608;11.462;2022-09-09T01:32:44;13.10;99.90
49042;DHT22;34859;51.608;11.462;2022-09-09T01:35:49;13.00;99.90
49042;DHT22;34859;51.608;11.462;2022-09-09T01:38:35;13.00;99.90
49042;DHT22;34859;51.608;11.462;2022-09-09T01:41:20;13.00;99.90
49042;DHT22;34859;51.608;11.462;2022-09-09T01:44:06;12.90;99.90
49042;DHT22;34859;51.608;11.462;2022-09-09T01:46:51;13.00;99.90
49042;DHT22;34859;51.608;11.462;2022-09-09T01:49:36;13.00;99.90
49042;DHT22;34859;51.608;11.462;2022-09-09T01:52:20;13.00;99.90
49042;DHT22;34859;51.608;11.462;2022-09-09T01:55:05;13.10;99.90
49042;DHT22;34859;51.608;11.462;2022-09-09T02:07:36;12.80;99.90
49042;DHT22;34859;51.608;11.462;2022-09-09T02:10:20;12.80;99.90
49042;DHT22;34859;51.608;11.462;2022-09-09T02:13:13;12.70;99.90
49042;DHT22;34859;51.608;11.462;2022-09-09T02:16:10;12.60;99.90
49042;DHT22;34859;51.608;11.462;2022-09-09T02:19:19;12.60;99.90
49042;DHT22;34859;51.608;11.462;2022-09-09T02:22:10;12.70;99.90
49042;DHT22;34859;51.608;11.462;2022-09-09T02:24:56;12.60;99.90
49042;DHT22;34859;51.608;11.462;2022-09-09T02:27:44;12.80;99.90
49042;DHT22;34859;51.608;11.462;2022-09-09T02:30:32;12.70;99.90
49042;DHT22;34859;51.608;11.462;2022-09-09T02:33:18;12.60;99.90
49042;DHT22;34859;51.608;11.462;2022-09-09T02:36:04;12.60;99.90
49042;DHT22;34859;51.608;11.462;2022-09-09T02:38:47;12.70;99.90
49042;DHT22;34859;51.608;11.462;2022-09-09T02:41:40;12.60;99.90
49042;DHT22;34859;51.608;11.462;2022-09-09T02:44:24;12.50;99.90
49042;DHT22;34859;51.608;11.462;2022-09-09T02:50:15;12.50;99.90
49042;DHT22;34859;51.608;11.462;2022-09-09T02:55:58;12.50;99.90
49042;DHT22;34859;51.608;11.462;2022-09-09T02:58:45;12.50;99.90
49042;DHT22;34859;51.608;11.462;2022-09-09T03:01:30;12.40;99.90
49042;DHT22;34859;51.608;11.462;2022-09-09T03:04:14;12.40;99.90
49042;DHT22;34859;51.608;11.462;2022-09-09T03:06:59;12.40;99.90
49042;DHT22;34859;51.608;11.462;2022-09-09T03:09:44;12.40;99.90
49042;DHT22;34859;51.608;11.462;2022-09-09T03:12:25;12.40;99.90
49042;DHT22;34859;51.608;11.462;2022-09-09T03:15:10;12.30;99.90
49042;DHT22;34859;51.608;11.462;2022-09-09T03:17:55;12.30;99.90
49042;DHT22;34859;51.608;11.462;2022-09-09T03:20:42;12.40;99.90
49042;DHT22;34859;51.608;11.462;2022-09-09T03:23:26;12.30;99.90
49042;DHT22;34859;51.608;11.462;2022-09-09T03:26:11;12.30;99.90
49042;DHT22;34859;51.608;11.462;2022-09-09T03:28:55;12.40;99.90
49042;DHT22;34859;51.608;11.462;2022-09-09T03:31:39;12.50;99.90
49042;DHT22;34859;51.608;11.462;2022-09-09T03:34:24;12.60;99.90
49042;DHT22;34859;51.608;11.462;2022-09-09T03:37:08;12.50;99.90
49042;DHT22;34859;51.608;11.462;2022-09-09T03:39:52;12.50;99.90
49042;DHT22;34859;51.608;11.462;2022-09-09T03:42:39;12.50;99.90
49042;DHT22;34859;51.608;11.462;2022-09-09T03:45:23;12.60;99.90
49042;DHT22;34859;51.608;11.462;2022-09-09T03:48:07;12.60;99.90
49042;DHT22;34859;51.608;11.462;2022-09-09T03:50:55;12.60;99.90
49042;DHT22;34859;51.608;11.462;2022-09-09T03:53:45;12.60;99.90
49042;DHT22;34859;51.608;11.462;2022-09-09T03:56:29;12.60;99.90
49042;DHT22;34859;51.608;11.462;2022-09-09T03:59:13;12.60;99.90
49042;DHT22;34859;51.608;11.462;2022-09-09T04:01:57;12.70;99.90
49042;DHT22;34859;51.608;11.462;2022-09-09T04:04:42;12.70;99.90
49042;DHT22;34859;51.608;11.462;2022-09-09T04:07:26;12.70;99.90
49042;DHT22;34859;51.608;11.462;2022-09-09T04:10:11;12.60;99.90
49042;DHT22;34859;51.608;11.462;2022-09-09T04:12:56;12.60;99.90
49042;DHT22;34859;51.608;11.462;2022-09-09T04:15:40;12.60;99.90
49042;DHT22;34859;51.608;11.462;2022-09-09T04:18:26;12.60;99.90
49042;DHT22;34859;51.608;11.462;2022-09-09T04:21:09;12.60;99.90
49042;DHT22;34859;51.608;11.462;2022-09-09T04:23:54;12.60;99.90
49042;DHT22;34859;51.608;11.462;2022-09-09T04:26:38;12.70;99.90
49042;DHT22;34859;51.608;11.462;2022-09-09T04:29:23;12.70;99.90
49042;DHT22;34859;51.608;11.462;2022-09-09T04:32:07;12.60;99.90
49042;DHT22;34859;51.608;11.462;2022-09-09T04:34:51;12.60;99.90
49042;DHT22;34859;51.608;11.462;2022-09-09T04:37:35;12.70;99.90
49042;DHT22;34859;51.608;11.462;2022-09-09T04:40:19;12.70;99.90
49042;DHT22;34859;51.608;11.462;2022-09-09T04:43:03;12.80;99.90
49042;DHT22;34859;51.608;11.462;2022-09-09T04:45:50;12.80;99.90
49042;DHT22;34859;51.608;11.462;2022-09-09T04:48:38;12.80;99.90
49042;DHT22;34859;51.608;11.462;2022-09-09T04:51:22;12.80;99.90
49042;DHT22;34859;51.608;11.462;2022-09-09T04:54:07;12.80;99.90
49042;DHT22;34859;51.608;11.462;2022-09-09T04:56:51;12.70;99.90
49042;DHT22;34859;51.608;11.462;2022-09-09T04:59:35;12.70;99.90
49042;DHT22;34859;51.608;11.462;2022-09-09T05:02:19;12.50;99.90
49042;DHT22;34859;51.608;11.462;2022-09-09T05:05:03;12.50;99.90
49042;DHT22;34859;51.608;11.462;2022-09-09T05:07:47;12.50;99.90
49042;DHT22;34859;51.608;11.462;2022-09-09T05:10:33;12.50;99.90
49042;DHT22;34859;51.608;11.462;2022-09-09T05:13:17;12.50;99.90
49042;DHT22;34859;51.608;11.462;2022-09-09T05:16:01;12.60;99.90
49042;DHT22;34859;51.608;11.462;2022-09-09T05:18:46;12.70;99.90
49042;DHT22;34859;51.608;11.462;2022-09-09T05:21:30;12.80;99.90
49042;DHT22;34859;51.608;11.462;2022-09-09T05:24:15;12.80;99.90
49042;DHT22;34859;51.608;11.462;2022-09-09T05:26:59;12.90;99.90
49042;DHT22;34859;51.608;11.462;2022-09-09T05:29:46;12.90;99.90
49042;DHT22;34859;51.608;11.462;2022-09-09T05:32:30;12.90;99.90
49042;DHT22;34859;51.608;11.462;2022-09-09T05:35:17;12.90;99.90
49042;DHT22;34859;51.608;11.462;2022-09-09T05:38:02;12.90;99.90
49042;DHT22;34859;51.608;11.462;2022-09-09T05:40:47;12.90;99.90
49042;DHT22;34859;51.608;11.462;2022-09-09T05:43:32;12.90;99.90
49042;DHT22;34859;51.608;11.462;2022-09-09T05:46:18;12.80;99.90
49042;DHT22;34859;51.608;11.462;2022-09-09T05:49:03;12.80;99.90
49042;DHT22;34859;51.608;11.462;2022-09-09T05:51:49;12.90;99.90
49042;DHT22;34859;51.608;11.462;2022-09-09T05:54:34;12.90;99.90
49042;DHT22;34859;51.608;11.462;2022-09-09T05:57:18;13.00;99.90
49042;DHT22;34859;51.608;11.462;2022-09-09T06:00:03;13.00;99.90
49042;DHT22;34859;51.608;11.462;2022-09-09T06:02:51;12.90;99.90
49042;DHT22;34859;51.608;11.462;2022-09-09T06:05:36;12.90;99.90
49042;DHT22;34859;51.608;11.462;2022-09-09T06:08:20;13.00;99.90
49042;DHT22;34859;51.608;11.462;2022-09-09T06:11:06;13.10;99.90
49042;DHT22;34859;51.608;11.462;2022-09-09T06:13:50;13.10;99.90
49042;DHT22;34859;51.608;11.462;2022-09-09T06:16:38;13.20;99.90
49042;DHT22;34859;51.608;11.462;2022-09-09T06:19:22;13.30;99.90
49042;DHT22;34859;51.608;11.462;2022-09-09T06:22:09;13.30;99.90
49042;DHT22;34859;51.608;11.462;2022-09-09T06:24:57;13.40;99.90
49042;DHT22;34859;51.608;11.462;2022-09-09T06:27:41;13.50;99.90
49042;DHT22;34859;51.608;11.462;2022-09-09T06:30:26;13.50;99.90
49042;DHT22;34859;51.608;11.462;2022-09-09T06:33:10;13.70;99.90
49042;DHT22;34859;51.608;11.462;2022-09-09T06:35:55;13.80;99.90
49042;DHT22;34859;51.608;11.462;2022-09-09T06:38:41;13.90;99.90
49042;DHT22;34859;51.608;11.462;2022-09-09T06:41:29;14.00;99.90
49042;DHT22;34859;51.608;11.462;2022-09-09T06:44:14;14.20;99.90
49042;DHT22;34859;51.608;11.462;2022-09-09T06:46:59;14.30;99.90
49042;DHT22;34859;51.608;11.462;2022-09-09T06:49:43;14.40;99.90
49042;DHT22;34859;51.608;11.462;2022-09-09T06:52:27;14.30;99.90
49042;DHT22;34859;51.608;11.462;2022-09-09T06:55:12;14.40;99.90
49042;DHT22;34859;51.608;11.462;2022-09-09T06:57:57;14.40;99.90
49042;DHT22;34859;51.608;11.462;2022-09-09T07:00:42;14.50;99.90
49042;DHT22;34859;51.608;11.462;2022-09-09T07:03:26;14.70;99.90
49042;DHT22;34859;51.608;11.462;2022-09-09T07:06:28;14.80;99.90
49042;DHT22;34859;51.608;11.462;2022-09-09T07:09:14;14.90;99.90
49042;DHT22;34859;51.608;11.462;2022-09-09T07:11:59;15.00;99.90
49042;DHT22;34859;51.608;11.462;2022-09-09T07:14:44;15.10;99.90
49042;DHT22;34859;51.608;11.462;2022-09-09T07:17:28;15.20;99.90
49042;DHT22;34859;51.608;11.462;2022-09-09T07:20:13;15.20;99.90
49042;DHT22;34859;51.608;11.462;2022-09-09T07:22:58;15.40;99.90
49042;DHT22;34859;51.608;11.462;2022-09-09T07:25:46;15.50;99.90
49042;DHT22;34859;51.608;11.462;2022-09-09T07:28:31;15.60;99.90
49042;DHT22;34859;51.608;11.462;2022-09-09T07:31:21;15.70;99.90
49042;DHT22;34859;51.608;11.462;2022-09-09T07:34:05;15.80;99.90
49042;DHT22;34859;51.608;11.462;2022-09-09T07:36:49;16.00;99.90
49042;DHT22;34859;51.608;11.462;2022-09-09T07:39:33;16.20;99.90
49042;DHT22;34859;51.608;11.462;2022-09-09T07:42:17;16.40;99.90
49042;DHT22;34859;51.608;11.462;2022-09-09T07:45:01;16.60;99.90
49042;DHT22;34859;51.608;11.462;2022-09-09T07:47:45;16.80;99.90
49042;DHT22;34859;51.608;11.462;2022-09-09T07:50:30;16.90;99.90
49042;DHT22;34859;51.608;11.462;2022-09-09T07:53:14;16.90;99.90
49042;DHT22;34859;51.608;11.462;2022-09-09T07:56:04;17.00;99.90
49042;DHT22;34859;51.608;11.462;2022-09-09T07:58:51;17.00;99.90
49042;DHT22;34859;51.608;11.462;2022-09-09T08:01:39;17.10;99.90
49042;DHT22;34859;51.608;11.462;2022-09-09T08:04:24;17.20;99.90
49042;DHT22;34859;51.608;11.462;2022-09-09T08:07:10;17.20;99.90
49042;DHT22;34859;51.608;11.462;2022-09-09T08:09:54;17.40;99.90
49042;DHT22;34859;51.608;11.462;2022-09-09T08:12:39;17.50;99.90
49042;DHT22;34859;51.608;11.462;2022-09-09T08:15:24;17.60;99.90
49042;DHT22;34859;51.608;11.462;2022-09-09T08:18:07;17.70;99.90
49042;DHT22;34859;51.608;11.462;2022-09-09T08:20:53;17.80;99.90
49042;DHT22;34859;51.608;11.462;2022-09-09T08:23:38;18.00;99.90
49042;DHT22;34859;51.608;11.462;2022-09-09T08:26:26;18.00;99.90
49042;DHT22;34859;51.608;11.462;2022-09-09T08:29:13;18.10;99.90
49042;DHT22;34859;51.608;11.462;2022-09-09T08:31:58;18.20;99.90
49042;DHT22;34859;51.608;11.462;2022-09-09T08:34:43;18.30;99.90
49042;DHT22;34859;51.608;11.462;2022-09-09T08:37:27;18.30;99.90
49042;DHT22;34859;51.608;11.462;2022-09-09T08:40:21;18.40;99.90
49042;DHT22;34859;51.608;11.462;2022-09-09T08:43:06;18.50;99.90
49042;DHT22;34859;51.608;11.462;2022-09-09T08:46:25;18.50;99.90
49042;DHT22;34859;51.608;11.462;2022-09-09T08:52:03;18.70;99.90
49042;DHT22;34859;51.608;11.462;2022-09-09T08:54:51;18.80;99.90
49042;DHT22;34859;51.608;11.462;2022-09-09T08:57:36;19.00;99.90
49042;DHT22;34859;51.608;11.462;2022-09-09T09:00:20;19.10;99.90
49042;DHT22;34859;51.608;11.462;2022-09-09T09:09:51;19.50;99.90
49042;DHT22;34859;51.608;11.462;2022-09-09T09:12:44;19.70;99.90
49042;DHT22;34859;51.608;11.462;2022-09-09T09:15:36;19.70;99.90
49042;DHT22;34859;51.608;11.462;2022-09-09T09:18:22;19.60;99.90
49042;DHT22;34859;51.608;11.462;2022-09-09T09:21:14;19.50;99.90
49042;DHT22;34859;51.608;11.462;2022-09-09T09:24:04;19.50;99.90
49042;DHT22;34859;51.608;11.462;2022-09-09T09:26:51;19.60;99.90
49042;DHT22;34859;51.608;11.462;2022-09-09T09:29:38;19.70;99.90
49042;DHT22;34859;51.608;11.462;2022-09-09T09:32:24;19.70;99.90
49042;DHT22;34859;51.608;11.462;2022-09-09T09:35:12;19.70;99.90
49042;DHT22;34859;51.608;11.462;2022-09-09T09:37:57;19.70;99.90
49042;DHT22;34859;51.608;11.462;2022-09-09T09:40:49;19.70;99.90
49042;DHT22;34859;51.608;11.462;2022-09-09T09:43:36;19.90;99.90
49042;DHT22;34859;51.608;11.462;2022-09-09T09:46:23;20.00;99.90
49042;DHT22;34859;51.608;11.462;2022-09-09T09:49:10;20.00;99.90
49042;DHT22;34859;51.608;11.462;2022-09-09T09:52:00;19.90;99.90
49042;DHT22;34859;51.608;11.462;2022-09-09T09:54:46;19.90;99.90
49042;DHT22;34859;51.608;11.462;2022-09-09T09:57:31;20.00;99.90
49042;DHT22;34859;51.608;11.462;2022-09-09T10:00:18;20.10;99.90
49042;DHT22;34859;51.608;11.462;2022-09-09T10:03:17;20.10;99.90
49042;DHT22;34859;51.608;11.462;2022-09-09T10:06:04;20.10;99.90
49042;DHT22;34859;51.608;11.462;2022-09-09T10:08:49;20.20;99.90
49042;DHT22;34859;51.608;11.462;2022-09-09T10:11:38;20.50;99.90
49042;DHT22;34859;51.608;11.462;2022-09-09T10:20:46;21.40;99.90
49042;DHT22;34859;51.608;11.462;2022-09-09T10:29:59;21.60;99.90
49042;DHT22;34859;51.608;11.462;2022-09-09T10:33:04;21.70;99.90
49042;DHT22;34859;51.608;11.462;2022-09-09T10:38:48;21.80;99.90
49042;DHT22;34859;51.608;11.462;2022-09-09T10:53:01;21.60;99.90
49042;DHT22;34859;51.608;11.462;2022-09-09T10:55:51;21.30;99.90
49042;DHT22;34859;51.608;11.462;2022-09-09T10:59:00;20.70;99.90
49042;DHT22;34859;51.608;11.462;2022-09-09T11:01:52;20.50;99.90
49042;DHT22;34859;51.608;11.462;2022-09-09T11:04:53;20.30;99.90
49042;DHT22;34859;51.608;11.462;2022-09-09T11:07:44;20.20;99.90
49042;DHT22;34859;51.608;11.462;2022-09-09T11:13:31;20.20;99.90
49042;DHT22;34859;51.608;11.462;2022-09-09T11:19:44;20.40;99.90
49042;DHT22;34859;51.608;11.462;2022-09-09T11:22:37;20.70;99.90
49042;DHT22;34859;51.608;11.462;2022-09-09T11:25:36;21.00;99.90
49042;DHT22;34859;51.608;11.462;2022-09-09T11:34:43;20.50;99.90
49042;DHT22;34859;51.608;11.462;2022-09-09T11:40:39;20.40;99.90
49042;DHT22;34859;51.608;11.462;2022-09-09T11:43:33;20.40;99.90
49042;DHT22;34859;51.608;11.462;2022-09-09T11:46:35;20.50;99.90
49042;DHT22;34859;51.608;11.462;2022-09-09T11:49:41;21.00;99.90
49042;DHT22;34859;51.608;11.462;2022-09-09T11:52:37;21.50;99.90
49042;DHT22;34859;51.608;11.462;2022-09-09T11:55:32;21.50;99.90
49042;DHT22;34859;51.608;11.462;2022-09-09T11:58:18;21.50;99.90
49042;DHT22;34859;51.608;11.462;2022-09-09T12:01:13;21.60;99.90
49042;DHT22;34859;51.608;11.462;2022-09-09T12:04:11;21.70;99.90
49042;DHT22;34859;51.608;11.462;2022-09-09T12:07:30;21.70;99.90
49042;DHT22;34859;51.608;11.462;2022-09-09T12:10:28;21.90;99.90
49042;DHT22;34859;51.608;11.462;2022-09-09T12:13:24;22.10;99.90
49042;DHT22;34859;51.608;11.462;2022-09-09T12:16:34;22.30;99.90
49042;DHT22;34859;51.608;11.462;2022-09-09T12:19:21;22.40;99.90
49042;DHT22;34859;51.608;11.462;2022-09-09T12:22:13;22.40;99.90
49042;DHT22;34859;51.608;11.462;2022-09-09T12:28:14;22.20;99.90
49042;DHT22;34859;51.608;11.462;2022-09-09T12:34:40;22.50;99.90
49042;DHT22;34859;51.608;11.462;2022-09-09T12:37:51;22.50;99.90
49042;DHT22;34859;51.608;11.462;2022-09-09T12:40:37;22.50;99.90
49042;DHT22;34859;51.608;11.462;2022-09-09T12:43:25;22.60;99.90
49042;DHT22;34859;51.608;11.462;2022-09-09T12:46:23;22.70;99.90
49042;DHT22;34859;51.608;11.462;2022-09-09T12:49:32;22.60;99.90
49042;DHT22;34859;51.608;11.462;2022-09-09T12:52:32;22.70;99.90
49042;DHT22;34859;51.608;11.462;2022-09-09T12:55:21;22.60;99.90
49042;DHT22;34859;51.608;11.462;2022-09-09T12:58:13;22.70;99.90
49042;DHT22;34859;51.608;11.462;2022-09-09T13:01:02;22.60;99.90
49042;DHT22;34859;51.608;11.462;2022-09-09T13:03:48;22.60;99.90
49042;DHT22;34859;51.608;11.462;2022-09-09T13:06:33;22.60;99.90
49042;DHT22;34859;51.608;11.462;2022-09-09T13:09:19;22.50;99.90
49042;DHT22;34859;51.608;11.462;2022-09-09T13:12:04;22.50;99.90
49042;DHT22;34859;51.608;11.462;2022-09-09T13:14:53;22.50;99.90
49042;DHT22;34859;51.608;11.462;2022-09-09T13:17:39;22.30;99.90
49042;DHT22;34859;51.608;11.462;2022-09-09T13:20:25;22.40;99.90
49042;DHT22;34859;51.608;11.462;2022-09-09T13:23:11;22.50;99.90
49042;DHT22;34859;51.608;11.462;2022-09-09T13:26:00;22.30;99.90
49042;DHT22;34859;51.608;11.462;2022-09-09T13:28:45;22.00;99.90
49042;DHT22;34859;51.608;11.462;2022-09-09T13:31:30;21.90;99.90
49042;DHT22;34859;51.608;11.462;2022-09-09T13:34:29;21.80;99.90
49042;DHT22;34859;51.608;11.462;2022-09-09T13:37:23;22.00;99.90
49042;DHT22;34859;51.608;11.462;2022-09-09T13:40:18;21.90;99.90
49042;DHT22;34859;51.608;11.462;2022-09-09T13:43:03;21.90;99.90
49042;DHT22;34859;51.608;11.462;2022-09-09T13:45:57;21.90;99.90
49042;DHT22;34859;51.608;11.462;2022-09-09T13:48:42;21.80;99.90
49042;DHT22;34859;51.608;11.462;2022-09-09T13:54:23;21.50;99.90
49042;DHT22;34859;51.608;11.462;2022-09-09T13:57:19;21.60;99.90
49042;DHT22;34859;51.608;11.462;2022-09-09T14:00:05;21.60;99.90
49042;DHT22;34859;51.608;11.462;2022-09-09T14:02:50;21.50;99.90
49042;DHT22;34859;51.608;11.462;2022-09-09T14:05:35;21.50;99.90
49042;DHT22;34859;51.608;11.462;2022-09-09T14:08:22;21.30;99.90
49042;DHT22;34859;51.608;11.462;2022-09-09T14:11:12;21.20;99.90
49042;DHT22;34859;51.608;11.462;2022-09-09T14:13:53;21.30;99.90
49042;DHT22;34859;51.608;11.462;2022-09-09T14:16:37;21.30;99.90
49042;DHT22;34859;51.608;11.462;2022-09-09T14:19:21;21.20;99.90
49042;DHT22;34859;51.608;11.462;2022-09-09T14:22:06;21.20;99.90
49042;DHT22;34859;51.608;11.462;2022-09-09T14:24:51;21.40;99.90
49042;DHT22;34859;51.608;11.462;2022-09-09T14:27:35;21.40;99.90
49042;DHT22;34859;51.608;11.462;2022-09-09T14:30:19;21.40;99.90
49042;DHT22;34859;51.608;11.462;2022-09-09T14:33:03;21.50;99.90
49042;DHT22;34859;51.608;11.462;2022-09-09T14:35:47;21.60;99.90
49042;DHT22;34859;51.608;11.462;2022-09-09T14:38:35;21.50;99.90
49042;DHT22;34859;51.608;11.462;2022-09-09T14:41:23;21.60;99.90
49042;DHT22;34859;51.608;11.462;2022-09-09T14:44:07;21.80;99.90
49042;DHT22;34859;51.608;11.462;2022-09-09T14:46:52;21.90;99.90
49042;DHT22;34859;51.608;11.462;2022-09-09T14:49:37;22.00;99.90
49042;DHT22;34859;51.608;11.462;2022-09-09T14:52:21;22.10;99.90
49042;DHT22;34859;51.608;11.462;2022-09-09T14:55:06;21.90;99.90
49042;DHT22;34859;51.608;11.462;2022-09-09T14:57:51;21.70;99.90
49042;DHT22;34859;51.608;11.462;2022-09-09T15:00:35;21.50;99.90
49042;DHT22;34859;51.608;11.462;2022-09-09T15:03:20;21.40;99.90
49042;DHT22;34859;51.608;11.462;2022-09-09T15:06:07;21.50;99.90
49042;DHT22;34859;51.608;11.462;2022-09-09T15:08:53;21.70;99.90
49042;DHT22;34859;51.608;11.462;2022-09-09T15:11:38;21.80;99.90
49042;DHT22;34859;51.608;11.462;2022-09-09T15:14:22;21.80;99.90
49042;DHT22;34859;51.608;11.462;2022-09-09T15:17:06;21.90;99.90
49042;DHT22;34859;51.608;11.462;2022-09-09T15:19:50;21.80;99.90
49042;DHT22;34859;51.608;11.462;2022-09-09T15:22:35;21.80;99.90
49042;DHT22;34859;51.608;11.462;2022-09-09T15:25:20;21.80;99.90
49042;DHT22;34859;51.608;11.462;2022-09-09T15:28:05;21.70;99.90
49042;DHT22;34859;51.608;11.462;2022-09-09T15:30:51;21.70;99.90
49042;DHT22;34859;51.608;11.462;2022-09-09T15:33:36;21.70;99.90
49042;DHT22;34859;51.608;11.462;2022-09-09T15:36:23;21.60;99.90
49042;DHT22;34859;51.608;11.462;2022-09-09T15:39:09;21.60;99.90
49042;DHT22;34859;51.608;11.462;2022-09-09T15:41:56;21.60;99.90
49042;DHT22;34859;51.608;11.462;2022-09-09T15:44:41;21.60;99.90
49042;DHT22;34859;51.608;11.462;2022-09-09T15:47:26;21.60;99.90
49042;DHT22;34859;51.608;11.462;2022-09-09T15:50:11;21.50;99.90
49042;DHT22;34859;51.608;11.462;2022-09-09T15:52:56;21.50;99.90
49042;DHT22;34859;51.608;11.462;2022-09-09T15:55:40;21.50;99.90
49042;DHT22;34859;51.608;11.462;2022-09-09T15:58:24;21.40;99.90
49042;DHT22;34859;51.608;11.462;2022-09-09T16:01:09;21.50;99.90
49042;DHT22;34859;51.608;11.462;2022-09-09T16:03:54;21.50;99.90
49042;DHT22;34859;51.608;11.462;2022-09-09T16:06:36;21.40;99.90
49042;DHT22;34859;51.608;11.462;2022-09-09T16:09:20;21.30;99.90
49042;DHT22;34859;51.608;11.462;2022-09-09T16:12:05;21.30;99.90
49042;DHT22;34859;51.608;11.462;2022-09-09T16:14:53;21.30;99.90
49042;DHT22;34859;51.608;11.462;2022-09-09T16:17:38;21.30;99.90
49042;DHT22;34859;51.608;11.462;2022-09-09T16:20:22;21.20;99.90
49042;DHT22;34859;51.608;11.462;2022-09-09T16:23:07;21.20;99.90
49042;DHT22;34859;51.608;11.462;2022-09-09T16:25:55;21.20;99.90
49042;DHT22;34859;51.608;11.462;2022-09-09T16:28:39;21.10;99.90
49042;DHT22;34859;51.608;11.462;2022-09-09T16:31:24;21.20;99.90
49042;DHT22;34859;51.608;11.462;2022-09-09T16:34:09;21.10;99.90
49042;DHT22;34859;51.608;11.462;2022-09-09T16:36:53;21.10;99.90
49042;DHT22;34859;51.608;11.462;2022-09-09T16:39:37;21.00;99.90
49042;DHT22;34859;51.608;11.462;2022-09-09T16:42:21;20.90;99.90
49042;DHT22;34859;51.608;11.462;2022-09-09T16:45:05;20.80;99.90
49042;DHT22;34859;51.608;11.462;2022-09-09T16:47:50;20.80;99.90
49042;DHT22;34859;51.608;11.462;2022-09-09T16:50:34;20.80;99.90
49042;DHT22;34859;51.608;11.462;2022-09-09T16:53:18;20.80;99.90
49042;DHT22;34859;51.608;11.462;2022-09-09T16:56:11;20.70;99.90
49042;DHT22;34859;51.608;11.462;2022-09-09T16:58:57;20.60;99.90
49042;DHT22;34859;51.608;11.462;2022-09-09T17:01:43;20.50;99.90
49042;DHT22;34859;51.608;11.462;2022-09-09T17:04:28;20.50;99.90
49042;DHT22;34859;51.608;11.462;2022-09-09T17:07:12;20.50;99.90
49042;DHT22;34859;51.608;11.462;2022-09-09T17:09:56;20.40;99.90
49042;DHT22;34859;51.608;11.462;2022-09-09T17:12:40;20.30;99.90
49042;DHT22;34859;51.608;11.462;2022-09-09T17:15:25;20.20;99.90
49042;DHT22;34859;51.608;11.462;2022-09-09T17:18:10;20.10;99.90
49042;DHT22;34859;51.608;11.462;2022-09-09T17:20:54;20.00;99.90
49042;DHT22;34859;51.608;11.462;2022-09-09T17:23:38;19.80;99.90
49042;DHT22;34859;51.608;11.462;2022-09-09T17:26:27;19.70;99.90
49042;DHT22;34859;51.608;11.462;2022-09-09T17:29:11;19.70;99.90
49042;DHT22;34859;51.608;11.462;2022-09-09T17:31:53;19.60;99.90
49042;DHT22;34859;51.608;11.462;2022-09-09T17:34:38;19.50;99.90
49042;DHT22;34859;51.608;11.462;2022-09-09T17:37:22;19.40;99.90
49042;DHT22;34859;51.608;11.462;2022-09-09T17:40:07;19.30;99.90
49042;DHT22;34859;51.608;11.462;2022-09-09T17:42:52;19.10;99.90
49042;DHT22;34859;51.608;11.462;2022-09-09T17:45:37;19.00;99.90
49042;DHT22;34859;51.608;11.462;2022-09-09T17:48:21;19.00;99.90
49042;DHT22;34859;51.608;11.462;2022-09-09T17:51:07;18.90;99.90
49042;DHT22;34859;51.608;11.462;2022-09-09T17:53:53;18.90;99.90
49042;DHT22;34859;51.608;11.462;2022-09-09T17:56:39;18.80;99.90
49042;DHT22;34859;51.608;11.462;2022-09-09T17:59:24;18.70;99.90
49042;DHT22;34859;51.608;11.462;2022-09-09T18:02:11;18.60;99.90
49042;DHT22;34859;51.608;11.462;2022-09-09T18:04:56;18.50;99.90
49042;DHT22;34859;51.608;11.462;2022-09-09T18:07:40;18.40;99.90
49042;DHT22;34859;51.608;11.462;2022-09-09T18:10:24;18.40;99.90
49042;DHT22;34859;51.608;11.462;2022-09-09T18:13:08;18.30;99.90
49042;DHT22;34859;51.608;11.462;2022-09-09T18:15:53;18.20;99.90
49042;DHT22;34859;51.608;11.462;2022-09-09T18:18:37;18.10;99.90
49042;DHT22;34859;51.608;11.462;2022-09-09T18:21:22;18.10;99.90
49042;DHT22;34859;51.608;11.462;2022-09-09T18:24:07;18.00;99.90
49042;DHT22;34859;51.608;11.462;2022-09-09T18:26:52;18.10;99.90
49042;DHT22;34859;51.608;11.462;2022-09-09T18:29:36;18.10;99.90
49042;DHT22;34859;51.608;11.462;2022-09-09T18:32:20;17.90;99.90
49042;DHT22;34859;51.608;11.462;2022-09-09T18:35:04;18.00;99.90
49042;DHT22;34859;51.608;11.462;2022-09-09T18:37:48;18.00;99.90
49042;DHT22;34859;51.608;11.462;2022-09-09T18:40:32;18.00;99.90
49042;DHT22;34859;51.608;11.462;2022-09-09T18:43:14;18.00;99.90
49042;DHT22;34859;51.608;11.462;2022-09-09T18:46:02;18.00;99.90
49042;DHT22;34859;51.608;11.462;2022-09-09T18:48:48;17.90;99.90
49042;DHT22;34859;51.608;11.462;2022-09-09T18:51:33;17.90;99.90
49042;DHT22;34859;51.608;11.462;2022-09-09T18:54:22;18.00;99.90
49042;DHT22;34859;51.608;11.462;2022-09-09T18:57:07;17.90;99.90
49042;DHT22;34859;51.608;11.462;2022-09-09T18:59:52;17.90;99.90
49042;DHT22;34859;51.608;11.462;2022-09-09T19:02:38;17.90;99.90
49042;DHT22;34859;51.608;11.462;2022-09-09T19:05:22;17.90;99.90